Stiles, Wisconsin
Current Conditions -  °F | °C
As of 9:55 PM on Friday 24 Oct 2014 (Local Time) from KOCQ Reporting Station
Overcast Overcast  
Wind Chill: 51°   Ceiling: 3200
Heat Index: 51°   Visibility: 7mi
Dew Point: 51°   Wind: 3mph
Humidity: 100%   Direction: 160°SSE
Pressure: 29.85"   Gusts: NA
Location:  44.9552°N, 88.0505°W
Report Text: KOCQ 250255Z AUTO 16003KT 7SM BKN032 BKN038 OVC060 10/10 A2985 RMK AO1 T01030103
Loading
Personal Weather Stations






























Interactive Weather Map
Tropical Storm Tracking
New forecast layout! Learn more

10-Day Weather Forecast

Advertisements
Track Severe Weather on mobile